Terminal Aerodrome Forecast
Issued by NWS Northern Indiana

Home | Current Version | Previous Version | Graphics & Text | Print | Product List | Glossary On
Versions: 1 2 3 4 5 6 7 8 9 10 11 12 13
000
FTUS43 KIWX 301120
TAFFWA
TAF
KFWA 301120Z 3012/0112 27003KT P6SM BKN010
     FM301500 26005KT P6SM SCT250
     FM302100 25008KT P6SM BKN040=

USA.gov is the U.S. government's official web portal to all federal, state and local government web resources and services.